DW2428 Weather Reports


time (UTC)temp
F
wind
direction
speed
knots
gust
knots
rain 1hr
in
rain 24hr
in
rain mn
in
humidity
%
barometer
mb
20260506192744 59 184 2.6 8.7 0.02 0.07 0.07 95 1008.0
20260506192604 59 129 2.6 10.4 0.03 0.07 0.07 96 1007.7
20260506192233 59 156 2.6 10.4 0.03 0.07 0.07 96 1008.1
20260506192050 59 171 2.6 10.4 0.03 0.07 0.07 96 1007.8
20260506191731 59 158 1.7 7.0 0.03 0.07 0.07 96 1008.1
20260506191536 59 144 1.7 7.8 0.03 0.07 0.07 95 1007.9
20260506191228 59 171 2.6 7.8 0.03 0.07 0.07 95 1008.2
20260506191006 58 100 1.7 7.8 0.03 0.07 0.07 95 1008.0
20260506190728 59 113 2.6 7.8 0.03 0.07 0.07 95 1008.1
20260506190554 58 158 2.6 7.8 0.03 0.07 0.07 95 1007.9
20260506190245 59 182 1.7 5.2 0.03 0.07 0.07 95 1008.1
20260506190007 58 149 1.7 6.1 0.03 0.06 0.06 95 1008.0
20260506185736 59 240 1.7 8.7 0.03 0.06 0.06 95 1008.2
20260506185555 58 157 2.6 8.7 0.03 0.06 0.06 95 1008.0
20260506185232 59 146 2.6 8.7 0.03 0.06 0.06 95 1008.4
20260506185040 58 195 2.6 8.7 0.04 0.06 0.06 95 1008.1
20260506184738 59 69 3.5 7.8 0.04 0.06 0.06 95 1008.3
20260506184508 58 153 4.3 7.8 0.04 0.06 0.06 95 1008.0
20260506184230 58 130 2.6 6.1 0.04 0.06 0.06 95 1008.3
20260506184006 58 139 1.7 11.3 0.04 0.06 0.06 95 1008.1
20260506183728 58 169 2.6 11.3 0.05 0.06 0.06 95 1008.5
20260506183521 58 145 1.7 11.3 0.05 0.06 0.06 95 1008.3
20260506183226 58 213 4.3 11.3 0.05 0.06 0.06 95 1008.5
20260506183021 58 121 2.6 9.6 0.06 0.06 0.06 95 1008.2
20260506182801 58 161 1.7 9.6 0.05 0.05 0.05 94 1008.5
20260506182538 58 152 1.7 9.6 0.04 0.04 0.04 94 1008.2
20260506182225 58 274 6.1 9.6 0.04 0.04 0.04 94 1008.3
20260506182042 58 173 0.9 7.8 0.04 0.04 0.04 94 1008.1
20260506181733 59 159 3.5 8.7 0.04 0.04 0.04 94 1008.3
20260506181518 58 117 1.7 8.7 0.04 0.04 0.04 94 1008.0
20260506181229 59 170 1.7 8.7 0.04 0.04 0.04 94 1008.3
20260506181107 58 185 4.3 8.7 0.04 0.04 0.04 94 1008.1
20260506180726 59 153 2.6 7.8 0.04 0.04 0.04 94 1008.3
20260506180531 58 170 1.7 7.0 0.04 0.04 0.04 94 1008.1
20260506180240 59 108 2.6 6.1 0.04 0.04 0.04 94 1008.6
20260506180008 59 126 1.7 5.2 0.03 0.03 0.03 94 1008.1
20260506175738 59 156 1.7 5.2 0.03 0.03 0.03 93 1008.6
20260506175558 59 144 1.7 5.2 0.03 0.03 0.03 93 1008.4
20260506175224 59 133 1.7 6.1 0.02 0.02 0.02 93 1008.7
20260506175101 59 163 0.9 6.1 0.02 0.02 0.02 93 1008.5
20260506174725 59 142 3.5 6.1 0.02 0.02 0.02 93 1008.9
20260506174559 59 151 0.9 5.2 0.02 0.02 0.02 92 1008.7
20260506174225 59 155 1.7 6.1 0.02 0.02 0.02 92 1009.0
20260506174059 59 159 0.0 6.1 0.02 0.02 0.02 92 1008.9
20260506173723 60 161 1.7 6.1 0.01 0.01 0.01 91 1009.2
20260506173602 59 156 1.7 6.1 0.01 0.01 0.01 91 1008.9
20260506173258 60 146 0.9 6.1 0.01 0.01 0.01 91 1009.2
20260506173032 60 174 0.9 6.1 0.00 0.00 0.00 90 1009.1
20260506172736 60 170 2.6 6.1 0.00 0.00 0.00 89 1009.4
20260506172519 60 133 1.7 5.2 0.00 0.00 0.00 89 1009.1
20260506172233 61 154 1.7 5.2 0.00 0.00 0.00 88 1009.4
20260506172057 60 223 0.9 5.2 0.00 0.00 0.00 88 1009.1
20260506171730 61 284 1.7 7.8 0.00 0.00 0.00 88 1009.4
20260506171553 60 136 1.7 8.7 0.00 0.00 0.00 87 1009.2
20260506171228 61 156 3.5 8.7 0.00 0.00 0.00 87 1009.5
20260506171035 61 88 0.9 8.7 0.00 0.00 0.00 87 1009.3
20260506170727 61 184 1.7 7.8 0.00 0.00 0.00 86 1009.7
20260506170509 61 198 3.5 9.6 0.00 0.00 0.00 85 1009.3
20260506170230 62 134 1.7 9.6 0.00 0.00 0.00 85 1009.7
20260506170016 61 93 3.5 9.6 0.00 0.00 0.00 84 1009.3
20260506165727 62 155 3.5 7.8 0.00 0.00 0.00 84 1009.7
20260506165638 61 160 2.6 7.8 0.00 0.00 0.00 84 1009.4
20260506165245 62 165 1.7 7.8 0.00 0.00 0.00 84 1009.6
20260506165031 62 186 1.7 12.2 0.00 0.00 0.00 84 1009.4
20260506164744 63 166 3.5 12.2 0.00 0.00 0.00 83 1009.8
20260506164552 62 119 1.7 14.8 0.00 0.00 0.00 83 1009.5
20260506164230 63 124 6.1 14.8 0.00 0.00 0.00 82 1009.9
20260506164053 62 119 3.5 14.8 0.00 0.00 0.00 83 1009.6
20260506163804 63 204 5.2 14.8 0.00 0.00 0.00 82 1009.9
20260506163514 63 293 3.5 8.7 0.00 0.00 0.00 82 1009.5
20260506163239 63 172 4.3 8.7 0.00 0.00 0.00 82 1009.7
20260506163106 63 113 2.6 8.7 0.00 0.00 0.00 82 1009.5
20260506162726 64 115 3.5 7.8 0.00 0.00 0.00 81 1009.8
20260506162503 63 164 2.6 7.8 0.00 0.00 0.00 81 1009.4
20260506162224 64 156 2.6 7.8 0.00 0.00 0.00 81 1009.8
20260506162019 63 153 3.5 7.8 0.00 0.00 0.00 81 1009.4
20260506161735 64 246 1.7 8.7 0.00 0.00 0.00 82 1009.6
20260506161605 64 157 0.9 8.7 0.00 0.00 0.00 82 1009.4
20260506161250 64 167 3.5 13.0 0.00 0.00 0.00 81 1009.8
20260506161006 64 126 0.9 13.0 0.00 0.00 0.00 82 1009.5
20260506160745 64 51 3.5 13.0 0.00 0.00 0.00 81 1010.0
20260506160536 64 154 4.3 13.0 0.00 0.00 0.00 80 1009.7
20260506160223 64 173 2.6 9.6 0.00 0.00 0.00 80 1010.2
20260506160030 64 201 1.7 9.6 0.00 0.00 0.00 80 1009.9
20260506155730 64 159 1.7 4.3 0.00 0.00 0.00 81 1010.1
20260506155525 64 174 1.7 4.3 0.00 0.00 0.00 81 1009.9
20260506155227 64 215 1.7 7.8 0.00 0.00 0.00 82 1010.2
20260506155030 63 184 0.9 8.7 0.00 0.00 0.00 82 1009.7
20260506154728 64 82 2.6 8.7 0.00 0.00 0.00 81 1010.2
20260506154527 63 131 2.6 8.7 0.00 0.00 0.00 82 1010.0
20260506154242 64 251 1.7 7.8 0.00 0.00 0.00 81 1010.3
20260506154025 63 151 1.7 7.8 0.00 0.00 0.00 81 1009.9
20260506153733 64 132 2.6 7.8 0.00 0.00 0.00 81 1010.3
20260506153604 63 130 2.6 7.8 0.00 0.00 0.00 81 1009.9
20260506153232 64 138 4.3 8.7 0.00 0.00 0.00 81 1010.1
20260506153048 63 161 0.9 8.7 0.00 0.00 0.00 81 1009.8
20260506152729 64 134 4.3 12.2 0.00 0.00 0.00 81 1010.0
20260506152531 63 141 2.6 12.2 0.00 0.00 0.00 81 1009.7
20260506152227 64 160 5.2 12.2 0.00 0.00 0.00 81 1010.0
20260506152006 63 162 1.7 7.8 0.00 0.00 0.00 81 1009.6
20260506151724 64 144 4.3 10.4 0.00 0.00 0.00 81 1009.9
20260506151556 64 128 2.6 10.4 0.00 0.00 0.00 81 1009.6
20260506151245 64 151 2.6 10.4 0.00 0.00 0.00 80 1010.0
20260506151057 64 63 4.3 10.4 0.00 0.00 0.00 80 1009.8
20260506150734 65 123 2.6 8.7 0.00 0.00 0.00 81 1010.1
20260506150543 64 35 4.3 8.7 0.00 0.00 0.00 80 1009.8
20260506150232 65 215 2.6 7.0 0.00 0.00 0.00 80 1010.0
20260506150017 64 15 1.7 10.4 0.00 0.00 0.00 80 1009.7
20260506145751 65 147 2.6 10.4 0.00 0.00 0.00 79 1010.0
20260506145547 64 160 3.5 10.4 0.00 0.00 0.00 79 1009.6
20260506145228 65 92 3.5 11.3 0.00 0.00 0.00 80 1010.2
20260506145033 64 242 2.6 11.3 0.00 0.00 0.00 79 1009.8
20260506144726 65 130 3.5 14.8 0.00 0.00 0.00 79 1010.1
20260506144504 65 76 2.6 14.8 0.00 0.00 0.00 78 1009.9
20260506144226 66 128 4.3 14.8 0.00 0.00 0.00 77 1010.2
20260506143738 67 127 2.6 15.6 0.00 0.00 0.00 77 1010.3
20260506143539 66 184 3.5 15.6 0.00 0.00 0.00 76 1009.9
20260506143246 67 144 2.6 9.6 0.00 0.00 0.00 76 1010.1
20260506143020 67 310 3.5 9.6 0.00 0.00 0.00 76 1009.8
20260506142734 67 164 2.6 10.4 0.00 0.00 0.00 77 1010.1
20260506142552 66 175 0.9 10.4 0.00 0.00 0.00 78 1009.9
20260506142239 67 107 4.3 10.4 0.00 0.00 0.00 77 1010.2
20260506142026 66 126 1.7 11.3 0.00 0.00 0.00 78 1010.0
20260506141735 66 144 3.5 11.3 0.00 0.00 0.00 78 1010.3
20260506141501 66 216 5.2 11.3 0.00 0.00 0.00 77 1010.1
20260506141233 66 121 3.5 9.6 0.00 0.00 0.00 79 1010.4
20260506141054 65 192 2.6 9.6 0.00 0.00 0.00 79 1010.0
20260506140732 66 117 4.3 8.7 0.00 0.00 0.00 80 1010.4
20260506140534 65 107 1.7 9.6 0.00 0.00 0.00 81 1010.1
20260506140230 65 171 2.6 11.3 0.00 0.00 0.00 81 1010.4
20260506140004 64 159 3.5 11.3 0.00 0.00 0.00 79 1010.1
20260506135726 65 161 6.1 11.3 0.00 0.00 0.00 79 1010.5
20260506135549 65 106 5.2 11.3 0.00 0.00 0.00 79 1010.1
20260506135223 65 87 3.5 9.6 0.00 0.00 0.00 81 1010.1
20260506135035 64 285 1.7 7.0 0.00 0.00 0.00 81 1009.9
20260506134726 65 93 3.5 7.0 0.00 0.00 0.00 81 1010.2
20260506134542 64 112 3.5 6.1 0.00 0.00 0.00 81 1009.9
20260506134225 64 199 1.7 12.2 0.00 0.00 0.00 82 1010.3
20260506134030 64 305 2.6 12.2 0.00 0.00 0.00 81 1009.9
20260506133742 64 273 5.2 13.0 0.00 0.00 0.00 82 1010.2
20260506133632 64 138 3.5 13.0 0.00 0.00 0.00 82 1009.8
20260506133228 64 178 3.5 13.0 0.00 0.00 0.00 82 1010.1
20260506133109 63 136 3.5 13.0 0.00 0.00 0.00 82 1009.8
20260506132726 63 181 2.6 9.6 0.00 0.00 0.00 82 1010.1
20260506132605 63 219 1.7 9.6 0.00 0.00 0.00 83 1009.8
20260506132226 63 105 2.6 10.4 0.00 0.00 0.00 83 1010.1
20260506132003 63 300 0.9 10.4 0.00 0.00 0.00 83 1009.7
20260506131800 63 198 2.6 10.4 0.00 0.00 0.00 83 1010.0
20260506131537 62 126 3.5 10.4 0.00 0.00 0.00 83 1009.8
20260506131237 63 174 1.7 10.4 0.00 0.00 0.00 84 1010.1
20260506131023 62 144 0.9 10.4 0.00 0.00 0.00 84 1009.8
20260506130734 63 155 2.6 10.4 0.00 0.00 0.00 84 1010.2
20260506130559 62 75 3.5 10.4 0.00 0.00 0.00 84 1009.8
20260506130231 62 151 4.3 9.6 0.00 0.00 0.00 84 1010.2
20260506130049 62 177 2.6 12.2 0.00 0.00 0.00 84 1010.0
20260506125727 63 143 3.5 12.2 0.00 0.00 0.00 83 1010.2
20260506125531 62 150 3.5 12.2 0.00 0.00 0.00 83 1010.0
20260506125242 63 128 1.7 10.4 0.00 0.00 0.00 84 1010.4
20260506125103 62 49 3.5 10.4 0.00 0.00 0.00 84 1010.2
20260506124758 63 285 0.9 8.7 0.00 0.00 0.00 85 1010.4
20260506124531 62 137 3.5 8.7 0.00 0.00 0.00 84 1010.2
20260506124223 63 127 1.7 7.8 0.00 0.00 0.00 85 1010.6
20260506124033 62 167 1.7 7.8 0.00 0.00 0.00 86 1010.5
20260506123723 62 63 0.9 14.8 0.00 0.00 0.00 87 1010.8
20260506123531 61 126 3.5 14.8 0.00 0.00 0.00 86 1010.5
20260506123233 61 160 5.2 14.8 0.00 0.00 0.00 87 1010.9
20260506123012 61 164 2.6 8.7 0.00 0.00 0.00 87 1010.6
20260506122748 61 141 2.6 14.8 0.00 0.00 0.00 88 1010.8
20260506122535 60 160 1.7 14.8 0.00 0.00 0.00 88 1010.6
20260506122241 61 125 1.7 14.8 0.00 0.00 0.00 88 1010.8
20260506122010 60 192 6.1 14.8 0.00 0.00 0.00 89 1010.6
20260506121729 60 115 2.6 9.6 0.00 0.00 0.00 89 1011.0
20260506121530 59 129 3.5 11.3 0.00 0.00 0.00 90 1010.5
20260506121229 60 153 3.5 11.3 0.00 0.00 0.00 90 1010.9
20260506121001 59 175 1.7 11.3 0.00 0.00 0.00 90 1010.4
20260506120730 59 146 4.3 11.3 0.00 0.00 0.00 91 1010.7
20260506120551 59 127 1.7 9.6 0.00 0.00 0.00 91 1010.6
20260506120226 59 131 2.6 9.6 0.00 0.00 0.00 91 1010.9
20260506120046 58 151 1.7 9.6 0.00 0.00 0.00 91 1010.7
20260506115724 59 151 3.5 8.7 0.00 0.00 0.00 91 1010.9
20260506115526 58 128 3.5 9.6 0.00 0.00 0.00 91 1010.7
20260506115222 59 253 1.7 8.7 0.00 0.00 0.00 91 1010.8
20260506115004 58 153 0.9 8.7 0.00 0.00 0.00 91 1010.5
20260506114737 58 151 4.3 8.7 0.00 0.00 0.00 92 1010.7
20260506114600 58 153 2.6 7.8 0.00 0.00 0.00 92 1010.5
20260506114225 58 143 2.6 7.8 0.00 0.00 0.00 92 1010.7
20260506114055 58 139 3.5 7.8 0.00 0.00 0.00 92 1010.5
20260506113726 58 140 1.7 6.1 0.00 0.00 0.00 92 1010.9
20260506113553 58 137 0.9 12.2 0.00 0.00 0.00 92 1010.5
20260506113224 58 207 2.6 12.2 0.00 0.00 0.00 92 1010.7
20260506113100 57 157 2.6 12.2 0.00 0.00 0.00 92 1010.5
20260506112724 58 150 2.6 7.0 0.00 0.00 0.00 92 1010.8
20260506112600 57 132 0.9 7.0 0.00 0.00 0.00 93 1010.6
20260506112225 58 158 2.6 7.0 0.00 0.00 0.00 93 1011.0
20260506112058 57 148 2.6 7.0 0.00 0.00 0.00 93 1010.7
20260506111800 58 161 2.6 6.1 0.00 0.00 0.00 93 1011.2
20260506111527 57 122 1.7 6.1 0.00 0.00 0.00 93 1010.8
20260506111225 57 172 1.7 8.7 0.00 0.00 0.00 93 1011.1
20260506111027 57 179 1.7 10.4 0.00 0.00 0.00 93 1010.8
20260506110725 57 90 3.5 10.4 0.00 0.00 0.00 93 1011.1
20260506110525 56 157 1.7 10.4 0.00 0.00 0.00 93 1010.9
20260506110225 57 146 2.6 7.8 0.00 0.00 0.00 93 1011.1
20260506110025 56 140 1.7 7.8 0.00 0.00 0.00 93 1010.7
20260506105723 57 285 2.6 7.8 0.00 0.00 0.00 94 1010.9
20260506105527 56 159 1.7 7.0 0.00 0.00 0.00 94 1010.5
20260506105232 57 145 1.7 7.8 0.00 0.00 0.00 94 1010.8
20260506105106 56 160 2.6 7.8 0.00 0.00 0.00 93 1010.7
20260506104746 57 167 1.7 7.8 0.00 0.00 0.00 93 1010.9
20260506104542 56 126 1.7 7.8 0.00 0.00 0.00 93 1010.8
20260506104242 56 134 2.6 6.1 0.00 0.00 0.00 93 1011.0
20260506104021 56 159 1.7 4.3 0.00 0.00 0.00 93 1010.8
20260506103732 56 201 0.9 11.3 0.00 0.00 0.00 93 1010.9
20260506103557 56 165 0.9 11.3 0.00 0.00 0.00 93 1010.7
20260506103236 56 212 1.7 11.3 0.00 0.00 0.00 93 1010.9
20260506103041 56 169 3.5 11.3 0.00 0.00 0.00 93 1010.5
20260506102728 56 201 1.7 5.2 0.00 0.00 0.00 93 1010.7
20260506102535 56 157 1.7 9.6 0.00 0.00 0.00 93 1010.5
20260506102222 56 165 1.7 9.6 0.00 0.00 0.00 93 1010.6
20260506102043 56 154 2.6 9.6 0.00 0.00 0.00 93 1010.4
20260506101740 56 159 2.6 5.2 0.00 0.00 0.00 93 1010.6
20260506101536 56 151 1.7 5.2 0.00 0.00 0.00 93 1010.4
20260506101226 56 178 1.7 4.3 0.00 0.00 0.00 93 1010.7
20260506101029 56 135 0.9 5.2 0.00 0.00 0.00 93 1010.4
20260506100724 56 185 1.7 5.2 0.00 0.00 0.00 93 1010.5
20260506100529 56 173 0.9 5.2 0.00 0.00 0.00 93 1010.2
20260506100226 56 159 2.6 5.2 0.00 0.00 0.00 93 1010.5
20260506100033 56 183 1.7 5.2 0.00 0.00 0.00 93 1010.3
20260506095725 56 170 2.6 5.2 0.00 0.00 0.00 93 1010.5
20260506095535 56 153 1.7 5.2 0.00 0.00 0.00 93 1010.2
20260506095239 56 148 1.7 5.2 0.00 0.00 0.00 93 1010.5
20260506095033 56 167 1.7 6.1 0.00 0.00 0.00 93 1010.2
20260506094759 56 185 1.7 6.1 0.00 0.00 0.00 92 1010.4
20260506094601 56 144 2.6 6.1 0.00 0.00 0.00 92 1010.2
20260506094237 56 140 1.7 7.8 0.00 0.00 0.00 92 1010.5
20260506094048 56 150 0.9 7.8 0.00 0.00 0.00 92 1010.3
20260506093745 56 149 1.7 7.8 0.00 0.00 0.00 92 1010.5
20260506093528 56 169 1.7 7.8 0.00 0.00 0.00 92 1010.3
20260506093234 56 135 1.7 3.5 0.00 0.00 0.00 92 1010.6
20260506093110 56 150 1.7 3.5 0.00 0.00 0.00 92 1010.2
20260506092755 57 184 1.7 7.0 0.00 0.00 0.00 92 1010.6
20260506092548 56 140 0.9 7.0 0.00 0.00 0.00 92 1010.3
20260506092254 57 166 1.7 7.0 0.00 0.00 0.00 92 1010.6
20260506092106 56 148 1.7 7.0 0.00 0.00 0.00 92 1010.3
20260506091730 57 168 1.7 6.1 0.00 0.00 0.00 92 1010.5
20260506091551 56 222 1.7 6.1 0.00 0.00 0.00 92 1010.2
20260506091229 57 123 3.5 8.7 0.00 0.00 0.00 91 1010.6
20260506091034 56 138 2.6 8.7 0.00 0.00 0.00 92 1010.3
20260506090737 57 109 2.6 8.7 0.00 0.00 0.00 91 1010.6
20260506090505 56 165 2.6 8.7 0.00 0.00 0.00 91 1010.3
20260506090228 57 152 2.6 7.0 0.00 0.00 0.00 91 1010.6
20260506090006 56 207 2.6 7.0 0.00 0.00 0.00 91 1010.4
20260506085734 57 162 2.6 7.0 0.00 0.00 0.00 91 1010.7
20260506085550 56 155 3.5 7.0 0.00 0.00 0.00 91 1010.4
20260506085250 57 119 2.6 4.3 0.00 0.00 0.00 91 1010.6
20260506085003 56 167 1.7 7.0 0.00 0.00 0.00 91 1010.4
20260506084727 57 148 1.7 7.0 0.00 0.00 0.00 91 1010.8
20260506084555 56 132 1.7 7.0 0.00 0.00 0.00 91 1010.4
20260506084225 57 190 2.6 7.0 0.00 0.00 0.00 91 1010.8
20260506084039 56 159 3.5 8.7 0.00 0.00 0.00 91 1010.5
20260506083800 57 162 2.6 8.7 0.00 0.00 0.00 91 1010.9
20260506083557 57 150 2.6 8.7 0.00 0.00 0.00 91 1010.6
20260506083234 57 179 1.7 8.7 0.00 0.00 0.00 90 1010.8
20260506083040 57 150 0.9 8.7 0.00 0.00 0.00 90 1010.5
20260506082751 57 238 4.3 8.7 0.00 0.00 0.00 90 1010.8
20260506082556 57 163 4.3 8.7 0.00 0.00 0.00 90 1010.5
20260506082247 57 86 3.5 7.8 0.00 0.00 0.00 90 1010.7
20260506082026 57 161 2.6 7.8 0.00 0.00 0.00 90 1010.5
20260506081743 57 160 4.3 7.8 0.00 0.00 0.00 90 1010.6
20260506081600 57 113 3.5 8.7 0.00 0.00 0.00 90 1010.4
20260506081231 57 149 2.6 8.7 0.00 0.00 0.00 90 1010.7
20260506081043 57 143 2.6 8.7 0.00 0.00 0.00 90 1010.5
20260506080724 58 129 4.3 8.7 0.00 0.00 0.00 90 1010.7
20260506080529 57 102 2.6 9.6 0.00 0.00 0.00 90 1010.4
20260506080241 58 229 4.3 9.6 0.00 0.00 0.00 90 1010.6
20260506073503 57 163 2.6 7.8 0.00 0.00 0.00 89 1010.6
20260506073225 58 123 2.6 7.8 0.00 0.00 0.00 89 1010.9
20260506073051 58 141 1.7 7.8 0.00 0.00 0.00 89 1010.6
20260506072723 58 170 2.6 7.8 0.00 0.00 0.00 88 1010.9
20260506072534 58 90 2.6 7.8 0.00 0.00 0.00 88 1010.6
20260506072227 58 169 5.2 7.8 0.00 0.00 0.00 88 1011.0
20260506072037 58 139 2.6 8.7 0.00 0.00 0.00 88 1010.8
20260506071726 58 157 3.5 13.0 0.00 0.00 0.00 88 1011.0
20260506071539 58 153 2.6 13.0 0.00 0.00 0.00 88 1010.7
20260506071232 58 147 4.3 13.0 0.00 0.00 0.00 88 1010.9
20260506071026 58 142 5.2 12.2 0.00 0.00 0.00 88 1010.6
20260506070732 58 151 5.2 12.2 0.00 0.00 0.00 88 1011.0
20260506070601 58 162 4.3 12.2 0.00 0.00 0.00 88 1010.7
20260506070257 58 159 3.5 9.6 0.00 0.00 0.00 88 1010.9
20260506062224 58 162 4.3 7.8 0.00 0.00 0.00 87 1010.9
20260506062032 58 146 1.7 4.3 0.00 0.00 0.00 87 1010.7
20260506061735 58 148 2.6 6.1 0.00 0.00 0.00 87 1011.0
20260506061502 58 178 1.7 7.0 0.00 0.00 0.00 87 1010.7
20260506061234 59 169 1.7 7.0 0.00 0.00 0.00 87 1010.9
20260506061057 58 131 2.6 7.0 0.00 0.00 0.00 87 1010.8
20260506060741 59 125 4.3 7.0 0.00 0.00 0.00 87 1011.0
20260506060527 58 107 3.5 7.0 0.00 0.00 0.00 87 1010.8
20260506060227 58 112 3.5 7.0 0.00 0.00 0.00 87 1010.9
20260506051226 60 161 2.6 7.8 0.00 0.00 0.00 84 1011.5
20260506051033 59 179 1.7 7.8 0.00 0.00 0.00 84 1011.2
20260506050726 60 163 3.5 8.7 0.00 0.00 0.00 84 1011.5
20260506050513 60 151 3.5 9.6 0.00 0.00 0.00 84 1011.3
20260506050242 60 136 3.5 9.6 0.00 0.00 0.00 83 1011.4
20260506045015 60 153 3.5 9.6 0.00 0.00 0.00 83 1011.3
20260506044740 60 137 3.5 9.6 0.00 0.00 0.00 83 1011.4
20260506044639 60 154 3.5 9.6 0.00 0.00 0.00 83 1011.3
20260506044255 61 109 3.5 7.8 0.00 0.00 0.00 83 1011.6
20260506044016 60 126 3.5 8.7 0.00 0.00 0.00 83 1011.4
20260506043730 61 157 2.6 11.3 0.00 0.00 0.00 83 1011.6
20260506043605 60 155 2.6 11.3 0.00 0.00 0.00 83 1011.3
20260506043249 61 163 4.3 11.3 0.00 0.00 0.00 82 1011.6
20260506043030 60 161 3.5 11.3 0.00 0.00 0.00 82 1011.3
20260506042742 61 150 2.6 7.0 0.00 0.00 0.00 82 1011.6
20260506042604 60 126 2.6 7.0 0.00 0.00 0.00 82 1011.4
20260506042228 61 153 2.6 7.0 0.00 0.00 0.00 82 1011.6
20260506042010 60 156 2.6 7.0 0.00 0.00 0.00 82 1011.4
20260506041727 61 103 2.6 8.7 0.00 0.00 0.00 82 1011.6
20260506041554 60 123 2.6 10.4 0.00 0.00 0.00 82 1011.4
20260506041226 61 130 2.6 10.4 0.00 0.00 0.00 82 1011.8
20260506041038 61 227 3.5 10.4 0.00 0.00 0.00 82 1011.4
20260506040724 61 180 4.3 10.4 0.00 0.00 0.00 82 1011.6
20260506040510 61 100 3.5 8.7 0.00 0.00 0.00 82 1011.5
20260506040223 61 168 2.6 8.7 0.00 0.00 0.00 82 1011.7
20260506040100 61 170 1.7 11.3 0.00 0.00 0.00 82 1011.5
20260506035730 61 131 2.6 11.3 0.00 0.00 0.00 82 1011.7
20260506035540 61 154 1.7 11.3 0.00 0.00 0.00 82 1011.4
20260506035257 61 175 4.3 12.2 0.00 0.00 0.00 82 1011.7
20260506035023 61 175 2.6 8.7 0.00 0.00 0.00 82 1011.5
20260506034728 61 153 2.6 8.7 0.00 0.00 0.00 81 1011.6
20260506034530 61 171 2.6 8.7 0.00 0.00 0.00 81 1011.5
20260506034226 61 128 4.3 8.7 0.00 0.00 0.00 81 1011.7
20260506034104 61 98 2.6 8.7 0.00 0.00 0.00 81 1011.5
20260506033802 61 130 2.6 8.7 0.00 0.00 0.00 81 1011.8
20260506033527 61 145 1.7 7.8 0.00 0.00 0.00 81 1011.5
20260506033244 61 157 3.5 10.4 0.00 0.00 0.00 81 1011.8
20260506033031 61 134 2.6 11.3 0.00 0.00 0.00 80 1011.5
20260506032743 62 169 1.7 12.2 0.00 0.00 0.00 80 1011.8
20260506032531 61 161 2.6 12.2 0.00 0.00 0.00 80 1011.5
20260506032227 62 126 3.5 12.2 0.00 0.00 0.00 80 1011.8
20260506032033 61 193 3.5 10.4 0.00 0.00 0.00 80 1011.5
20260506031725 62 75 4.3 10.4 0.00 0.00 0.00 79 1011.8
20260506031535 61 141 0.9 10.4 0.00 0.00 0.00 79 1011.6
20260506031237 62 144 3.5 10.4 0.00 0.00 0.00 79 1011.9
20260506031008 61 192 1.7 10.4 0.00 0.00 0.00 78 1011.6
20260506030745 62 123 2.6 10.4 0.00 0.00 0.00 78 1011.8
20260506030552 61 169 4.3 10.4 0.00 0.00 0.00 78 1011.5
20260506030237 62 137 1.7 10.4 0.00 0.00 0.00 78 1011.8
20260506030057 61 157 1.7 10.4 0.00 0.00 0.00 78 1011.5
20260506025730 62 106 2.6 9.6 0.00 0.00 0.00 77 1011.8
20260506025538 61 138 0.9 9.6 0.00 0.00 0.00 77 1011.5
20260506025236 62 292 0.9 9.6 0.00 0.00 0.00 77 1011.9
20260506025006 62 167 3.5 9.6 0.00 0.00 0.00 76 1011.4
20260506024727 62 107 2.6 8.7 0.00 0.00 0.00 76 1011.6
20260506024505 62 316 0.9 10.4 0.00 0.00 0.00 76 1011.3
20260506024237 62 194 3.5 10.4 0.00 0.00 0.00 76 1011.5
20260506024052 62 117 1.7 10.4 0.00 0.00 0.00 76 1011.4
20260506023753 63 168 1.7 8.7 0.00 0.00 0.00 75 1011.5
20260506023504 62 187 3.5 9.6 0.00 0.00 0.00 75 1011.4
20260506023228 63 143 3.5 10.4 0.00 0.00 0.00 75 1011.7
20260506023100 62 62 3.5 10.4 0.00 0.00 0.00 75 1011.4
20260506022745 62 150 4.3 10.4 0.00 0.00 0.00 75 1011.6
20260506022508 62 105 2.6 8.7 0.00 0.00 0.00 76 1011.3
20260506022243 63 144 3.5 8.7 0.00 0.00 0.00 75 1011.4
20260506022053 62 185 1.7 8.7 0.00 0.00 0.00 75 1011.3
20260506021732 62 117 5.2 8.7 0.00 0.00 0.00 75 1011.5
20260506021545 62 109 3.5 8.7 0.00 0.00 0.00 75 1011.2
20260506021240 62 223 1.7 7.8 0.00 0.00 0.00 75 1011.5
20260506021023 62 150 0.9 12.2 0.00 0.00 0.00 75 1011.2
20260506020724 63 140 4.3 12.2 0.00 0.00 0.00 75 1011.4
20260506020516 62 150 0.9 12.2 0.00 0.00 0.00 75 1011.2
20260506020225 63 228 4.3 12.2 0.00 0.00 0.00 75 1011.4
20260506020005 62 158 1.7 10.4 0.00 0.00 0.00 75 1011.2
20260506015743 63 155 5.2 13.0 0.00 0.00 0.00 75 1011.3
20260506015545 62 169 2.6 13.0 0.00 0.00 0.00 75 1011.1
20260506015232 62 169 4.3 13.0 0.00 0.00 0.00 76 1011.4
20260506015034 62 94 2.6 8.7 0.00 0.00 0.00 76 1011.2
20260506014730 62 128 1.7 7.8 0.00 0.00 0.00 76 1011.3
20260506014509 62 132 2.6 7.8 0.00 0.00 0.00 76 1011.0
20260506014237 62 171 2.6 7.8 0.00 0.00 0.00 75 1011.3
20260506014055 62 139 3.5 7.8 0.00 0.00 0.00 75 1011.1
20260506013737 62 236 2.6 8.7 0.00 0.00 0.00 75 1011.3
20260506013537 62 132 1.7 8.7 0.00 0.00 0.00 76 1011.0
20260506013237 62 140 3.5 8.7 0.00 0.00 0.00 75 1011.2
20260506013017 62 133 2.6 11.3 0.00 0.00 0.00 75 1011.0
20260506012754 62 178 1.7 11.3 0.00 0.00 0.00 76 1011.2
20260506012543 62 157 2.6 11.3 0.00 0.00 0.00 75 1010.9
20260506012249 62 129 6.1 11.3 0.00 0.00 0.00 75 1011.0
20260506012100 62 107 2.6 8.7 0.00 0.00 0.00 75 1010.9
20260506011726 62 142 1.7 7.8 0.00 0.00 0.00 75 1011.0
20260506011547 62 191 1.7 7.8 0.00 0.00 0.00 75 1010.7
20260506011231 62 249 0.9 7.8 0.00 0.00 0.00 75 1010.9
20260506011058 62 254 1.7 7.8 0.00 0.00 0.00 75 1010.7
20260506010758 62 155 3.5 7.8 0.00 0.00 0.00 75 1010.9
20260506010508 62 156 0.9 7.0 0.00 0.00 0.00 74 1010.6
20260506010242 62 123 0.9 10.4 0.00 0.00 0.00 74 1010.7
20260506010057 62 155 2.6 10.4 0.00 0.00 0.00 74 1010.6
20260506005734 63 153 2.6 10.4 0.00 0.00 0.00 74 1010.8
20260506005534 62 140 1.7 8.7 0.00 0.00 0.00 74 1010.5
20260506005231 63 74 3.5 9.6 0.00 0.00 0.00 73 1010.7
20260506005004 62 125 3.5 9.6 0.00 0.00 0.00 73 1010.5
20260506004729 63 138 2.6 9.6 0.00 0.00 0.00 73 1010.6
20260506004554 62 139 3.5 9.6 0.00 0.00 0.00 73 1010.4
20260506004240 63 152 2.6 10.4 0.00 0.00 0.00 74 1010.7
20260506004039 62 164 1.7 10.4 0.00 0.00 0.00 74 1010.4
20260506003727 62 194 3.5 10.4 0.00 0.00 0.00 74 1010.5
20260506003539 62 175 0.9 4.3 0.00 0.00 0.00 74 1010.3
20260506003225 62 154 0.9 4.3 0.00 0.00 0.00 74 1010.5
20260506003043 62 177 0.9 6.1 0.00 0.00 0.00 74 1010.3
20260506002724 63 128 1.7 6.1 0.00 0.00 0.00 73 1010.3
20260506002541 62 321 0.9 6.1 0.00 0.00 0.00 73 1010.2
20260506002233 63 136 2.6 6.1 0.00 0.00 0.00 73 1010.3
20260506002033 62 162 1.7 7.0 0.00 0.00 0.00 73 1010.1
20260506001729 63 119 0.9 8.7 0.00 0.00 0.00 73 1010.3
20260506001505 62 184 0.9 8.7 0.00 0.00 0.00 72 1010.1
20260506001224 63 103 3.5 8.7 0.00 0.00 0.00 72 1010.3
20260506001055 62 162 4.3 8.7 0.00 0.00 0.00 72 1010.0
20260506000742 63 132 4.3 7.8 0.00 0.00 0.00 72 1010.1
20260506000536 63 141 2.6 10.4 0.00 0.00 0.00 72 1010.0
20260506000231 63 176 1.7 10.4 0.00 0.00 0.00 71 1010.2
20260506000013 63 207 1.7 10.4 0.00 0.00 0.00 71 1010.0
20260505235731 64 232 4.3 10.4 0.00 0.00 0.00 71 1010.1
20260505235601 63 93 2.6 9.6 0.00 0.00 0.00 71 1010.0
20260505235228 64 213 1.7 13.0 0.00 0.00 0.00 71 1010.0
20260505235048 63 154 3.5 13.0 0.00 0.00 0.00 70 1009.8
20260505234726 64 157 5.2 13.0 0.00 0.00 0.00 70 1010.1
20260505234555 64 140 2.6 10.4 0.00 0.00 0.00 70 1009.8
20260505234229 64 130 3.5 9.6 0.00 0.00 0.00 70 1010.0
20260505234042 64 129 3.5 9.6 0.00 0.00 0.00 70 1009.8
20260505233727 65 117 4.3 10.4 0.00 0.00 0.00 69 1009.9
20260505233531 64 123 4.3 10.4 0.00 0.00 0.00 69 1009.6
20260505233225 65 209 4.3 10.4 0.00 0.00 0.00 69 1009.8
20260505233009 64 192 3.5 9.6 0.00 0.00 0.00 70 1009.7
20260505232800 65 132 2.6 9.6 0.00 0.00 0.00 70 1009.8
20260505232533 64 158 1.7 6.1 0.00 0.00 0.00 70 1009.4
20260505232227 65 173 1.7 6.1 0.00 0.00 0.00 70 1009.7
20260505232040 65 225 0.9 4.3 0.00 0.00 0.00 70 1009.3
20260505231744 65 20 0.9 6.1 0.00 0.00 0.00 70 1009.6
20260505231539 65 179 1.7 6.1 0.00 0.00 0.00 69 1009.1
20260505231233 65 144 2.6 6.1 0.00 0.00 0.00 69 1009.4
20260505231024 65 169 3.5 9.6 0.00 0.00 0.00 69 1009.2
20260505230729 66 165 1.7 9.6 0.00 0.00 0.00 69 1009.2
20260505230602 65 171 1.7 9.6 0.00 0.00 0.00 69 1009.0
20260505230230 66 160 3.5 9.6 0.00 0.00 0.00 69 1009.2
20260505230049 65 139 3.5 9.6 0.00 0.00 0.00 68 1009.0
20260505225747 66 199 2.6 9.6 0.00 0.00 0.00 68 1009.0
20260505225503 66 169 0.9 9.6 0.00 0.00 0.00 69 1008.9
20260505225256 66 172 2.6 9.6 0.00 0.00 0.00 69 1009.3
20260505225035 66 123 2.6 7.8 0.00 0.00 0.00 68 1009.1
20260505224735 66 156 3.5 7.8 0.00 0.00 0.00 68 1009.6
20260505224506 66 208 1.7 7.0 0.00 0.00 0.00 68 1009.2
20260505224234 67 175 1.7 7.0 0.00 0.00 0.00 68 1009.4
20260505224059 66 178 2.6 7.8 0.00 0.00 0.00 67 1009.2
20260505223738 67 142 0.9 8.7 0.00 0.00 0.00 68 1009.4
20260505223535 66 117 1.7 8.7 0.00 0.00 0.00 67 1009.1
20260505223238 67 221 4.3 8.7 0.00 0.00 0.00 67 1009.3
20260505223004 67 117 3.5 8.7 0.00 0.00 0.00 67 1009.2
20260505222729 67 87 1.7 10.4 0.00 0.00 0.00 68 1009.3
20260505222552 67 58 1.7 10.4 0.00 0.00 0.00 67 1009.0
20260505222241 67 201 4.3 10.4 0.00 0.00 0.00 67 1009.2
20260505222037 67 140 3.5 10.4 0.00 0.00 0.00 66 1009.1
20260505221743 68 109 2.6 8.7 0.00 0.00 0.00 66 1009.3
20260505221553 67 132 2.6 9.6 0.00 0.00 0.00 66 1009.0
20260505221232 68 146 2.6 9.6 0.00 0.00 0.00 66 1009.2
20260505221039 67 171 4.3 10.4 0.00 0.00 0.00 66 1008.9
20260505220728 68 85 2.6 10.4 0.00 0.00 0.00 66 1009.2
20260505220513 68 153 3.5 10.4 0.00 0.00 0.00 66 1008.9
20260505220226 68 177 2.6 10.4 0.00 0.00 0.00 66 1009.1
20260505220001 68 203 0.9 13.0 0.00 0.00 0.00 66 1008.9
20260505215724 68 28 5.2 13.0 0.00 0.00 0.00 65 1009.2
20260505215550 68 78 2.6 15.6 0.00 0.00 0.00 66 1008.9
20260505215224 69 132 2.6 17.4 0.00 0.00 0.00 65 1009.1
20260505215059 68 169 2.6 17.4 0.00 0.00 0.00 66 1008.8
20260505214742 69 142 6.1 17.4 0.00 0.00 0.00 65 1009.0
20260505214558 69 127 4.3 10.4 0.00 0.00 0.00 65 1008.7
20260505214249 69 199 1.7 7.8 0.00 0.00 0.00 65 1009.0
20260505214022 69 134 1.7 9.6 0.00 0.00 0.00 64 1008.7
20260505213727 69 295 2.6 16.5 0.00 0.00 0.00 65 1008.9
20260505213522 69 170 1.7 16.5 0.00 0.00 0.00 65 1008.7
20260505213226 69 242 4.3 16.5 0.00 0.00 0.00 64 1008.8
20260505213024 69 178 2.6 12.2 0.00 0.00 0.00 65 1008.7
20260505212741 69 297 2.6 12.2 0.00 0.00 0.00 64 1008.8
20260505212522 69 150 1.7 12.2 0.00 0.00 0.00 65 1008.6
20260505212230 69 131 4.3 12.2 0.00 0.00 0.00 63 1008.9
20260505212058 69 152 2.6 8.7 0.00 0.00 0.00 63 1008.6
20260505211728 70 243 3.5 9.6 0.00 0.00 0.00 63 1009.0
20260505211545 69 129 3.5 9.6 0.00 0.00 0.00 63 1008.8
20260505211226 70 153 3.5 9.6 0.00 0.00 0.00 62 1009.0
20260505211033 70 136 3.5 9.6 0.00 0.00 0.00 62 1008.8
20260505210723 70 135 4.3 7.8 0.00 0.00 0.00 62 1009.0
20260505210500 70 155 1.7 9.6 0.00 0.00 0.00 63 1008.7
20260505210227 71 146 1.7 9.6 0.00 0.00 0.00 63 1008.9
20260505210004 70 221 2.6 9.6 0.00 0.00 0.00 62 1008.6
20260505205743 71 167 3.5 9.6 0.00 0.00 0.00 62 1008.9
20260505205501 70 83 3.5 7.8 0.00 0.00 0.00 61 1008.5
20260505205233 71 136 2.6 7.0 0.00 0.00 0.00 62 1008.8
20260505205056 71 213 2.6 7.8 0.00 0.00 0.00 61 1008.6
20260505204729 71 173 0.9 7.8 0.00 0.00 0.00 63 1008.8
20260505204542 71 169 1.7 7.8 0.00 0.00 0.00 62 1008.6
20260505204237 71 103 2.6 8.7 0.00 0.00 0.00 62 1008.7
20260505204023 71 165 2.6 13.0 0.00 0.00 0.00 62 1008.6
20260505203729 71 302 4.3 13.0 0.00 0.00 0.00 61 1008.7
20260505203522 71 151 2.6 13.0 0.00 0.00 0.00 61 1008.5
20260505203237 71 149 4.3 13.0 0.00 0.00 0.00 62 1008.7
20260505203059 71 213 0.9 7.8 0.00 0.00 0.00 62 1008.5
20260505202749 71 215 1.7 8.7 0.00 0.00 0.00 62 1008.9
20260505202509 71 131 2.6 8.7 0.00 0.00 0.00 62 1008.6
20260505202242 71 165 2.6 8.7 0.00 0.00 0.00 61 1008.8
20260505202056 71 91 1.7 7.8 0.00 0.00 0.00 61 1008.7
20260505201734 71 155 4.3 8.7 0.00 0.00 0.00 61 1008.8
20260505201539 71 157 3.5 7.0 0.00 0.00 0.00 61 1008.7
20260505201229 72 169 2.6 7.8 0.00 0.00 0.00 62 1008.9
20260505201012 71 138 1.7 7.8 0.00 0.00 0.00 62 1008.9
20260505200725 72 198 2.6 7.8 0.00 0.00 0.00 60 1009.1
20260505200501 71 126 2.6 7.8 0.00 0.00 0.00 60 1009.0
20260505200226 72 169 3.5 7.8 0.00 0.00 0.00 60 1009.1
20260505195739 72 126 2.6 9.6 0.00 0.00 0.00 61 1009.0
20260505195534 71 157 0.9 14.8 0.00 0.00 0.00 62 1008.8
20260505195236 72 186 3.5 14.8 0.00 0.00 0.00 62 1009.0
20260505195004 71 246 4.3 14.8 0.00 0.00 0.00 60 1008.8
20260505194732 72 274 0.0 9.6 0.00 0.00 0.00 61 1009.1
20260505194605 72 173 0.0 9.6 0.00 0.00 0.00 61 1008.9
20260505194249 72 135 4.3 10.4 0.00 0.00 0.00 61 1009.3
20260505194009 72 162 3.5 10.4 0.00 0.00 0.00 61 1009.0
20260505193726 73 221 4.3 10.4 0.00 0.00 0.00 61 1009.2
20260505193558 72 153 2.6 11.3 0.00 0.00 0.00 60 1009.0
20260505193240 73 256 3.5 11.3 0.00 0.00 0.00 60 1009.3
20260505193049 72 151 3.5 11.3 0.00 0.00 0.00 60 1009.0